首页
METAR-TAF:

METAR-TAF

机场 :

布兰太尔, 马拉维

纬度: 15-41S, 经度: 034-58E, 海拔: 766米

当前天气观测

该预报发布于2小时和16分钟前的12:00 UTC
风速6节,风向西
温度 29°C
湿度 35%
气压 1018 hPa
能见度10公里或以上
散云层高于3000英尺

METAR: FWCL 251200Z 28006KT 9999 SCT030 29/12 Q1018 NOSIG

时间: 16:16 (14:16 UTC)

预报

该预报发布于5小时和46分钟前的08:30 UTC
预报有效从25日的 12点(UTC)到 26日的 18点(UTC)
风速6节,风向东转东南
能见度10公里或以上
少量云层高于2000英尺
成为
从 25日的 17点(UTC)到 25日的 19点(UTC)
风速5节,风向
能见度10公里或以上
1500米以下无云,无积雨云
从 26日的 0800点(UTC)
风速6节,风向东转东南
能见度10公里或以上
少量云层高于2000英尺

TAF: FWCL 250830Z 2512/2618 12006KT 9999 FEW020 BECMG 2517/2519 10005KT CAVOK FM260800 11006KT 9999 FEW020

超过4000个机场的气象观测和天气预报(METAR&TAF报告)。

可查询的气象台以黄色和红色小点在地图上表示。

将鼠标移到小点上方,可查看气象台名称。

然后点击查看天气观测和预报。

如需切换地图:点击带黑十字的绿色按钮放大地图;点击带横线的绿色按钮缩小地图;或者点击绿色箭头查看邻近地区的地图。


METAR-TAF: